sensor_id;sensor_type;location;lat;lon;timestamp;pressure;altitude;pressure_sealevel;temperature;humidity
35224;BME280;21367;51.930;8.112;2023-02-02T00:02:18;101209.97;;;4.69;100.00
35224;BME280;21367;51.930;8.112;2023-02-02T00:07:22;101207.44;;;4.81;100.00
35224;BME280;21367;51.930;8.112;2023-02-02T00:12:25;101218.84;;;4.74;100.00
35224;BME280;21367;51.930;8.112;2023-02-02T00:17:32;101213.72;;;4.62;100.00
35224;BME280;21367;51.930;8.112;2023-02-02T00:22:36;101219.00;;;4.42;100.00
35224;BME280;21367;51.930;8.112;2023-02-02T00:27:40;101207.53;;;4.59;100.00
35224;BME280;21367;51.930;8.112;2023-02-02T00:32:47;101206.50;;;4.57;100.00
35224;BME280;21367;51.930;8.112;2023-02-02T00:37:52;101218.78;;;4.51;100.00
35224;BME280;21367;51.930;8.112;2023-02-02T00:42:56;101220.56;;;4.52;100.00
35224;BME280;21367;51.930;8.112;2023-02-02T00:48:03;101214.59;;;4.51;100.00
35224;BME280;21367;51.930;8.112;2023-02-02T00:53:07;101218.13;;;4.53;100.00
35224;BME280;21367;51.930;8.112;2023-02-02T00:58:11;101221.09;;;4.48;100.00
35224;BME280;21367;51.930;8.112;2023-02-02T01:03:17;101221.78;;;4.45;100.00
35224;BME280;21367;51.930;8.112;2023-02-02T01:08:21;101226.19;;;4.36;100.00
35224;BME280;21367;51.930;8.112;2023-02-02T01:13:25;101231.47;;;4.27;100.00
35224;BME280;21367;51.930;8.112;2023-02-02T01:18:32;101245.66;;;4.47;100.00
35224;BME280;21367;51.930;8.112;2023-02-02T01:23:37;101238.13;;;4.37;100.00
35224;BME280;21367;51.930;8.112;2023-02-02T01:28:41;101239.13;;;4.39;100.00
35224;BME280;21367;51.930;8.112;2023-02-02T01:33:48;101236.22;;;4.34;100.00
35224;BME280;21367;51.930;8.112;2023-02-02T01:38:52;101245.34;;;4.43;100.00
35224;BME280;21367;51.930;8.112;2023-02-02T01:43:59;101252.38;;;4.23;100.00
35224;BME280;21367;51.930;8.112;2023-02-02T01:49:09;101261.44;;;4.31;100.00
35224;BME280;21367;51.930;8.112;2023-02-02T01:54:17;101257.25;;;4.32;100.00
35224;BME280;21367;51.930;8.112;2023-02-02T01:59:23;101263.75;;;4.28;100.00
35224;BME280;21367;51.930;8.112;2023-02-02T02:04:31;101259.78;;;4.32;100.00
35224;BME280;21367;51.930;8.112;2023-02-02T02:09:35;101265.94;;;4.46;100.00
35224;BME280;21367;51.930;8.112;2023-02-02T02:14:40;101260.72;;;4.44;100.00
35224;BME280;21367;51.930;8.112;2023-02-02T02:20:25;101259.72;;;4.42;100.00
35224;BME280;21367;51.930;8.112;2023-02-02T02:25:59;101264.63;;;4.62;100.00
35224;BME280;21367;51.930;8.112;2023-02-02T02:31:37;101269.69;;;4.51;100.00
35224;BME280;21367;51.930;8.112;2023-02-02T02:36:49;101267.41;;;4.32;100.00
35224;BME280;21367;51.930;8.112;2023-02-02T02:41:58;101272.22;;;4.51;100.00
35224;BME280;21367;51.930;8.112;2023-02-02T02:47:07;101285.38;;;4.67;100.00
35224;BME280;21367;51.930;8.112;2023-02-02T02:52:13;101292.03;;;4.77;100.00
35224;BME280;21367;51.930;8.112;2023-02-02T02:57:45;101281.91;;;4.55;100.00
35224;BME280;21367;51.930;8.112;2023-02-02T03:02:57;101285.38;;;4.79;100.00
35224;BME280;21367;51.930;8.112;2023-02-02T03:08:09;101288.88;;;4.69;100.00
35224;BME280;21367;51.930;8.112;2023-02-02T03:13:14;101290.22;;;4.64;100.00
35224;BME280;21367;51.930;8.112;2023-02-02T03:18:24;101278.38;;;4.64;100.00
35224;BME280;21367;51.930;8.112;2023-02-02T03:23:29;101285.50;;;4.80;100.00
35224;BME280;21367;51.930;8.112;2023-02-02T03:28:33;101284.44;;;4.67;100.00
35224;BME280;21367;51.930;8.112;2023-02-02T03:33:40;101288.13;;;4.82;100.00
35224;BME280;21367;51.930;8.112;2023-02-02T03:38:44;101288.16;;;4.94;100.00
35224;BME280;21367;51.930;8.112;2023-02-02T03:43:47;101289.56;;;4.78;100.00
35224;BME280;21367;51.930;8.112;2023-02-02T03:48:54;101292.81;;;4.87;100.00
35224;BME280;21367;51.930;8.112;2023-02-02T03:53:57;101289.81;;;4.81;100.00
35224;BME280;21367;51.930;8.112;2023-02-02T03:59:01;101304.78;;;5.00;100.00
35224;BME280;21367;51.930;8.112;2023-02-02T04:04:07;101307.09;;;4.97;100.00
35224;BME280;21367;51.930;8.112;2023-02-02T04:09:10;101309.13;;;5.13;100.00
35224;BME280;21367;51.930;8.112;2023-02-02T04:14:14;101313.09;;;5.09;100.00
35224;BME280;21367;51.930;8.112;2023-02-02T04:19:21;101309.91;;;5.24;100.00
35224;BME280;21367;51.930;8.112;2023-02-02T04:24:25;101310.22;;;5.17;100.00
35224;BME280;21367;51.930;8.112;2023-02-02T04:29:28;101312.31;;;4.99;100.00
35224;BME280;21367;51.930;8.112;2023-02-02T04:34:35;101316.47;;;5.20;100.00
35224;BME280;21367;51.930;8.112;2023-02-02T04:39:39;101309.22;;;5.26;100.00
35224;BME280;21367;51.930;8.112;2023-02-02T04:44:42;101320.78;;;5.33;100.00
35224;BME280;21367;51.930;8.112;2023-02-02T04:49:49;101316.22;;;5.41;100.00
35224;BME280;21367;51.930;8.112;2023-02-02T04:54:52;101316.00;;;5.49;100.00
35224;BME280;21367;51.930;8.112;2023-02-02T04:59:56;101326.75;;;5.33;100.00
35224;BME280;21367;51.930;8.112;2023-02-02T05:05:03;101322.78;;;5.49;100.00
35224;BME280;21367;51.930;8.112;2023-02-02T05:10:08;101326.19;;;5.38;100.00
35224;BME280;21367;51.930;8.112;2023-02-02T05:15:12;101332.63;;;5.32;100.00
35224;BME280;21367;51.930;8.112;2023-02-02T05:20:19;101318.69;;;5.39;100.00
35224;BME280;21367;51.930;8.112;2023-02-02T05:25:22;101315.56;;;5.43;100.00
35224;BME280;21367;51.930;8.112;2023-02-02T05:30:26;101312.47;;;5.59;100.00
35224;BME280;21367;51.930;8.112;2023-02-02T05:35:32;101320.09;;;5.47;100.00
35224;BME280;21367;51.930;8.112;2023-02-02T05:40:36;101323.56;;;5.36;100.00
35224;BME280;21367;51.930;8.112;2023-02-02T05:45:40;101334.72;;;5.38;100.00
35224;BME280;21367;51.930;8.112;2023-02-02T05:50:56;101350.69;;;5.36;100.00
35224;BME280;21367;51.930;8.112;2023-02-02T05:56:01;101338.81;;;5.13;100.00
35224;BME280;21367;51.930;8.112;2023-02-02T06:01:04;101343.94;;;5.24;100.00
35224;BME280;21367;51.930;8.112;2023-02-02T06:06:12;101351.34;;;5.21;100.00
35224;BME280;21367;51.930;8.112;2023-02-02T06:11:17;101351.53;;;5.13;100.00
35224;BME280;21367;51.930;8.112;2023-02-02T06:16:21;101345.38;;;5.21;100.00
35224;BME280;21367;51.930;8.112;2023-02-02T06:21:27;101352.13;;;5.32;100.00
35224;BME280;21367;51.930;8.112;2023-02-02T06:26:35;101353.09;;;5.22;100.00
35224;BME280;21367;51.930;8.112;2023-02-02T06:31:39;101366.44;;;5.30;100.00
35224;BME280;21367;51.930;8.112;2023-02-02T06:36:45;101371.53;;;5.42;100.00
35224;BME280;21367;51.930;8.112;2023-02-02T06:41:49;101376.75;;;5.43;100.00
35224;BME280;21367;51.930;8.112;2023-02-02T06:46:53;101382.75;;;5.55;100.00
35224;BME280;21367;51.930;8.112;2023-02-02T06:51:59;101388.72;;;5.44;100.00
35224;BME280;21367;51.930;8.112;2023-02-02T06:57:03;101390.16;;;5.52;100.00
35224;BME280;21367;51.930;8.112;2023-02-02T07:02:09;101386.75;;;5.52;100.00
35224;BME280;21367;51.930;8.112;2023-02-02T07:07:16;101388.72;;;5.56;100.00
35224;BME280;21367;51.930;8.112;2023-02-02T07:12:21;101384.84;;;5.49;100.00
35224;BME280;21367;51.930;8.112;2023-02-02T07:17:26;101395.72;;;5.59;100.00
35224;BME280;21367;51.930;8.112;2023-02-02T07:22:32;101398.47;;;5.50;100.00
35224;BME280;21367;51.930;8.112;2023-02-02T07:27:36;101419.50;;;5.36;100.00
35224;BME280;21367;51.930;8.112;2023-02-02T07:32:45;101423.25;;;5.17;100.00
35224;BME280;21367;51.930;8.112;2023-02-02T07:37:53;101430.66;;;5.26;100.00
35224;BME280;21367;51.930;8.112;2023-02-02T07:42:57;101431.06;;;5.42;100.00
35224;BME280;21367;51.930;8.112;2023-02-02T07:48:02;101434.78;;;5.36;100.00
35224;BME280;21367;51.930;8.112;2023-02-02T07:53:08;101441.09;;;5.29;100.00
35224;BME280;21367;51.930;8.112;2023-02-02T07:58:12;101444.69;;;5.43;100.00
35224;BME280;21367;51.930;8.112;2023-02-02T08:03:16;101441.91;;;5.40;100.00
35224;BME280;21367;51.930;8.112;2023-02-02T08:08:22;101442.66;;;5.39;100.00
35224;BME280;21367;51.930;8.112;2023-02-02T08:13:26;101443.34;;;5.36;100.00
35224;BME280;21367;51.930;8.112;2023-02-02T08:18:29;101458.19;;;5.42;100.00
35224;BME280;21367;51.930;8.112;2023-02-02T08:23:37;101454.00;;;5.54;100.00
35224;BME280;21367;51.930;8.112;2023-02-02T08:28:43;101455.66;;;5.53;100.00
35224;BME280;21367;51.930;8.112;2023-02-02T08:33:47;101459.97;;;5.54;100.00
35224;BME280;21367;51.930;8.112;2023-02-02T08:38:59;101466.44;;;5.61;100.00
35224;BME280;21367;51.930;8.112;2023-02-02T08:44:04;101465.09;;;5.66;100.00
35224;BME280;21367;51.930;8.112;2023-02-02T08:49:09;101480.75;;;5.59;100.00
35224;BME280;21367;51.930;8.112;2023-02-02T08:54:16;101486.75;;;5.71;100.00
35224;BME280;21367;51.930;8.112;2023-02-02T08:59:19;101492.63;;;5.70;100.00
35224;BME280;21367;51.930;8.112;2023-02-02T09:04:23;101501.03;;;5.69;100.00
35224;BME280;21367;51.930;8.112;2023-02-02T09:09:29;101506.25;;;5.83;100.00
35224;BME280;21367;51.930;8.112;2023-02-02T09:14:33;101507.09;;;5.93;100.00
35224;BME280;21367;51.930;8.112;2023-02-02T09:19:37;101521.31;;;6.13;99.99
35224;BME280;21367;51.930;8.112;2023-02-02T09:24:44;101528.34;;;5.48;100.00
35224;BME280;21367;51.930;8.112;2023-02-02T09:29:47;101535.91;;;5.80;100.00
35224;BME280;21367;51.930;8.112;2023-02-02T09:34:52;101547.81;;;6.03;100.00
35224;BME280;21367;51.930;8.112;2023-02-02T09:39:58;101560.03;;;6.08;100.00
35224;BME280;21367;51.930;8.112;2023-02-02T09:45:07;101559.19;;;5.85;100.00
35224;BME280;21367;51.930;8.112;2023-02-02T09:50:18;101564.88;;;5.59;100.00
35224;BME280;21367;51.930;8.112;2023-02-02T09:55:31;101570.56;;;6.00;100.00
35224;BME280;21367;51.930;8.112;2023-02-02T10:00:40;101577.66;;;5.93;100.00
35224;BME280;21367;51.930;8.112;2023-02-02T10:05:50;101583.81;;;5.85;100.00
35224;BME280;21367;51.930;8.112;2023-02-02T10:11:01;101582.75;;;5.93;100.00
35224;BME280;21367;51.930;8.112;2023-02-02T10:16:12;101601.06;;;5.43;100.00
35224;BME280;21367;51.930;8.112;2023-02-02T10:21:25;101602.41;;;5.72;100.00
35224;BME280;21367;51.930;8.112;2023-02-02T10:26:38;101605.09;;;5.85;100.00
35224;BME280;21367;51.930;8.112;2023-02-02T10:31:48;101610.47;;;5.66;100.00
35224;BME280;21367;51.930;8.112;2023-02-02T10:37:19;101611.53;;;5.92;100.00
35224;BME280;21367;51.930;8.112;2023-02-02T10:42:34;101618.84;;;6.09;100.00
35224;BME280;21367;51.930;8.112;2023-02-02T10:47:45;101617.63;;;6.16;100.00
35224;BME280;21367;51.930;8.112;2023-02-02T10:52:53;101620.34;;;5.95;100.00
35224;BME280;21367;51.930;8.112;2023-02-02T10:58:07;101615.50;;;6.10;100.00
35224;BME280;21367;51.930;8.112;2023-02-02T11:03:16;101626.31;;;6.18;100.00
35224;BME280;21367;51.930;8.112;2023-02-02T11:08:29;101621.66;;;6.24;100.00
35224;BME280;21367;51.930;8.112;2023-02-02T11:13:41;101630.84;;;6.22;100.00
35224;BME280;21367;51.930;8.112;2023-02-02T11:18:47;101624.66;;;6.30;100.00
35224;BME280;21367;51.930;8.112;2023-02-02T11:23:58;101628.56;;;6.37;100.00
35224;BME280;21367;51.930;8.112;2023-02-02T11:29:17;101625.53;;;6.54;100.00
35224;BME280;21367;51.930;8.112;2023-02-02T11:34:27;101627.72;;;5.80;100.00
35224;BME280;21367;51.930;8.112;2023-02-02T11:39:31;101627.13;;;5.95;100.00
35224;BME280;21367;51.930;8.112;2023-02-02T11:44:38;101640.31;;;5.23;100.00
35224;BME280;21367;51.930;8.112;2023-02-02T11:49:43;101644.97;;;5.95;100.00
35224;BME280;21367;51.930;8.112;2023-02-02T11:54:49;101641.28;;;5.91;100.00
35224;BME280;21367;51.930;8.112;2023-02-02T12:00:22;101640.16;;;5.88;100.00
35224;BME280;21367;51.930;8.112;2023-02-02T12:05:34;101652.25;;;5.90;100.00
35224;BME280;21367;51.930;8.112;2023-02-02T12:10:42;101654.44;;;5.86;100.00
35224;BME280;21367;51.930;8.112;2023-02-02T12:16:02;101658.00;;;5.88;100.00
35224;BME280;21367;51.930;8.112;2023-02-02T12:21:13;101657.72;;;5.73;100.00
35224;BME280;21367;51.930;8.112;2023-02-02T12:26:25;101655.06;;;5.93;100.00
35224;BME280;21367;51.930;8.112;2023-02-02T12:31:43;101649.88;;;6.03;100.00
35224;BME280;21367;51.930;8.112;2023-02-02T12:36:59;101649.09;;;5.83;100.00
35224;BME280;21367;51.930;8.112;2023-02-02T12:42:22;101643.84;;;5.69;100.00
35224;BME280;21367;51.930;8.112;2023-02-02T12:47:39;101642.06;;;5.90;100.00
35224;BME280;21367;51.930;8.112;2023-02-02T12:53:06;101640.53;;;5.92;100.00
35224;BME280;21367;51.930;8.112;2023-02-02T12:58:21;101642.78;;;5.99;100.00
35224;BME280;21367;51.930;8.112;2023-02-02T13:03:37;101642.81;;;6.23;100.00
35224;BME280;21367;51.930;8.112;2023-02-02T13:08:49;101648.50;;;6.19;100.00
35224;BME280;21367;51.930;8.112;2023-02-02T13:13:58;101646.69;;;5.84;100.00
35224;BME280;21367;51.930;8.112;2023-02-02T13:19:09;101648.47;;;5.85;100.00
35224;BME280;21367;51.930;8.112;2023-02-02T13:24:20;101654.53;;;5.75;100.00
35224;BME280;21367;51.930;8.112;2023-02-02T13:29:32;101660.56;;;5.88;100.00
35224;BME280;21367;51.930;8.112;2023-02-02T13:34:43;101656.97;;;5.96;100.00
35224;BME280;21367;51.930;8.112;2023-02-02T13:39:55;101653.03;;;5.89;100.00
35224;BME280;21367;51.930;8.112;2023-02-02T13:45:05;101653.28;;;5.92;100.00
35224;BME280;21367;51.930;8.112;2023-02-02T13:50:21;101663.53;;;5.82;100.00
35224;BME280;21367;51.930;8.112;2023-02-02T13:55:41;101662.78;;;5.83;100.00
35224;BME280;21367;51.930;8.112;2023-02-02T14:00:49;101665.56;;;6.08;100.00
35224;BME280;21367;51.930;8.112;2023-02-02T14:06:05;101667.50;;;6.00;100.00
35224;BME280;21367;51.930;8.112;2023-02-02T14:11:18;101667.66;;;5.92;100.00
35224;BME280;21367;51.930;8.112;2023-02-02T14:16:42;101672.06;;;5.61;100.00
35224;BME280;21367;51.930;8.112;2023-02-02T14:22:07;101676.75;;;5.88;100.00
35224;BME280;21367;51.930;8.112;2023-02-02T14:33:26;101680.41;;;5.80;100.00
35224;BME280;21367;51.930;8.112;2023-02-02T14:39:05;101678.81;;;5.70;100.00
35224;BME280;21367;51.930;8.112;2023-02-02T14:44:16;101674.84;;;5.52;100.00
35224;BME280;21367;51.930;8.112;2023-02-02T14:49:22;101678.66;;;5.47;100.00
35224;BME280;21367;51.930;8.112;2023-02-02T14:54:47;101693.66;;;5.54;100.00
35224;BME280;21367;51.930;8.112;2023-02-02T14:59:53;101689.28;;;5.63;100.00
35224;BME280;21367;51.930;8.112;2023-02-02T15:11:00;101689.44;;;5.76;100.00
35224;BME280;21367;51.930;8.112;2023-02-02T15:16:27;101695.81;;;5.60;100.00
35224;BME280;21367;51.930;8.112;2023-02-02T15:21:35;101698.72;;;5.64;100.00
35224;BME280;21367;51.930;8.112;2023-02-02T15:26:46;101701.50;;;5.45;100.00
35224;BME280;21367;51.930;8.112;2023-02-02T15:31:52;101712.84;;;5.49;100.00
35224;BME280;21367;51.930;8.112;2023-02-02T15:36:59;101708.22;;;5.23;100.00
35224;BME280;21367;51.930;8.112;2023-02-02T15:42:15;101712.00;;;5.60;100.00
35224;BME280;21367;51.930;8.112;2023-02-02T15:47:34;101710.38;;;4.76;100.00
35224;BME280;21367;51.930;8.112;2023-02-02T15:52:44;101730.88;;;5.62;100.00
35224;BME280;21367;51.930;8.112;2023-02-02T15:57:52;101721.00;;;5.13;100.00
35224;BME280;21367;51.930;8.112;2023-02-02T16:02:59;101716.31;;;5.39;100.00
35224;BME280;21367;51.930;8.112;2023-02-02T16:08:07;101719.31;;;5.23;100.00
35224;BME280;21367;51.930;8.112;2023-02-02T16:13:32;101716.09;;;5.58;100.00
35224;BME280;21367;51.930;8.112;2023-02-02T16:18:36;101719.03;;;5.30;100.00
35224;BME280;21367;51.930;8.112;2023-02-02T16:23:40;101734.47;;;4.59;100.00
35224;BME280;21367;51.930;8.112;2023-02-02T16:28:47;101728.38;;;5.52;100.00
35224;BME280;21367;51.930;8.112;2023-02-02T16:33:51;101718.84;;;5.71;100.00
35224;BME280;21367;51.930;8.112;2023-02-02T16:38:57;101724.50;;;5.57;100.00
35224;BME280;21367;51.930;8.112;2023-02-02T16:44:35;101724.66;;;5.80;100.00
35224;BME280;21367;51.930;8.112;2023-02-02T16:49:39;101732.06;;;5.77;100.00
35224;BME280;21367;51.930;8.112;2023-02-02T16:54:49;101731.84;;;5.96;100.00
35224;BME280;21367;51.930;8.112;2023-02-02T16:59:59;101743.50;;;5.83;100.00
35224;BME280;21367;51.930;8.112;2023-02-02T17:05:16;101741.88;;;6.05;100.00
35224;BME280;21367;51.930;8.112;2023-02-02T17:10:26;101737.72;;;5.95;100.00
35224;BME280;21367;51.930;8.112;2023-02-02T17:15:34;101737.06;;;5.98;100.00
35224;BME280;21367;51.930;8.112;2023-02-02T17:20:40;101750.81;;;6.22;100.00
35224;BME280;21367;51.930;8.112;2023-02-02T17:25:45;101765.41;;;6.35;100.00
35224;BME280;21367;51.930;8.112;2023-02-02T17:30:57;101753.75;;;6.38;100.00
35224;BME280;21367;51.930;8.112;2023-02-02T17:36:11;101755.91;;;6.56;100.00
35224;BME280;21367;51.930;8.112;2023-02-02T17:41:15;101759.13;;;6.53;100.00
35224;BME280;21367;51.930;8.112;2023-02-02T17:46:23;101760.50;;;6.71;100.00
35224;BME280;21367;51.930;8.112;2023-02-02T17:51:30;101764.38;;;6.66;100.00
35224;BME280;21367;51.930;8.112;2023-02-02T17:56:42;101761.72;;;6.77;100.00
35224;BME280;21367;51.930;8.112;2023-02-02T18:01:49;101758.94;;;6.73;100.00
35224;BME280;21367;51.930;8.112;2023-02-02T18:06:54;101765.16;;;6.65;100.00
35224;BME280;21367;51.930;8.112;2023-02-02T18:11:58;101756.91;;;6.58;100.00
35224;BME280;21367;51.930;8.112;2023-02-02T18:17:04;101749.06;;;6.78;100.00
35224;BME280;21367;51.930;8.112;2023-02-02T18:22:09;101751.38;;;6.63;100.00
35224;BME280;21367;51.930;8.112;2023-02-02T18:27:14;101755.41;;;6.71;100.00
35224;BME280;21367;51.930;8.112;2023-02-02T18:32:22;101760.28;;;6.68;100.00
35224;BME280;21367;51.930;8.112;2023-02-02T18:37:26;101750.97;;;6.81;100.00
35224;BME280;21367;51.930;8.112;2023-02-02T18:42:29;101750.50;;;6.63;100.00
35224;BME280;21367;51.930;8.112;2023-02-02T18:47:36;101748.28;;;6.79;100.00
35224;BME280;21367;51.930;8.112;2023-02-02T18:52:39;101753.69;;;6.60;100.00
35224;BME280;21367;51.930;8.112;2023-02-02T18:57:44;101751.66;;;6.90;100.00
35224;BME280;21367;51.930;8.112;2023-02-02T19:02:50;101748.16;;;6.66;100.00
35224;BME280;21367;51.930;8.112;2023-02-02T19:07:53;101742.25;;;6.67;100.00
35224;BME280;21367;51.930;8.112;2023-02-02T19:13:09;101752.41;;;6.77;100.00
35224;BME280;21367;51.930;8.112;2023-02-02T19:18:19;101747.16;;;6.64;100.00
35224;BME280;21367;51.930;8.112;2023-02-02T19:23:28;101749.66;;;6.98;100.00
35224;BME280;21367;51.930;8.112;2023-02-02T19:28:33;101750.53;;;6.86;100.00
35224;BME280;21367;51.930;8.112;2023-02-02T19:33:43;101749.84;;;6.89;100.00
35224;BME280;21367;51.930;8.112;2023-02-02T19:38:50;101759.75;;;7.08;100.00
35224;BME280;21367;51.930;8.112;2023-02-02T19:44:00;101762.41;;;6.86;100.00
35224;BME280;21367;51.930;8.112;2023-02-02T19:49:16;101764.78;;;7.06;100.00
35224;BME280;21367;51.930;8.112;2023-02-02T19:54:28;101768.34;;;7.08;100.00
35224;BME280;21367;51.930;8.112;2023-02-02T19:59:34;101773.44;;;6.97;100.00
35224;BME280;21367;51.930;8.112;2023-02-02T20:04:40;101773.53;;;6.98;100.00
35224;BME280;21367;51.930;8.112;2023-02-02T20:09:44;101760.53;;;7.07;100.00
35224;BME280;21367;51.930;8.112;2023-02-02T20:14:49;101755.19;;;7.04;100.00
35224;BME280;21367;51.930;8.112;2023-02-02T20:19:56;101751.63;;;7.02;100.00
35224;BME280;21367;51.930;8.112;2023-02-02T20:25:06;101753.00;;;7.08;100.00
35224;BME280;21367;51.930;8.112;2023-02-02T20:30:17;101754.63;;;7.08;100.00
35224;BME280;21367;51.930;8.112;2023-02-02T20:35:29;101754.78;;;7.09;100.00
35224;BME280;21367;51.930;8.112;2023-02-02T20:40:35;101746.53;;;7.37;100.00
35224;BME280;21367;51.930;8.112;2023-02-02T20:45:39;101737.41;;;7.29;100.00
35224;BME280;21367;51.930;8.112;2023-02-02T20:50:46;101748.41;;;7.04;100.00
35224;BME280;21367;51.930;8.112;2023-02-02T20:55:50;101739.97;;;7.29;100.00
35224;BME280;21367;51.930;8.112;2023-02-02T21:00:57;101741.53;;;7.27;100.00
35224;BME280;21367;51.930;8.112;2023-02-02T21:06:07;101744.31;;;7.18;100.00
35224;BME280;21367;51.930;8.112;2023-02-02T21:11:11;101747.41;;;7.26;100.00
35224;BME280;21367;51.930;8.112;2023-02-02T21:16:15;101745.09;;;7.17;100.00
35224;BME280;21367;51.930;8.112;2023-02-02T21:21:24;101752.44;;;7.12;100.00
35224;BME280;21367;51.930;8.112;2023-02-02T21:26:29;101754.44;;;7.16;100.00
35224;BME280;21367;51.930;8.112;2023-02-02T21:31:32;101764.31;;;7.00;100.00
35224;BME280;21367;51.930;8.112;2023-02-02T21:36:44;101763.66;;;7.26;100.00
35224;BME280;21367;51.930;8.112;2023-02-02T21:41:49;101764.66;;;7.16;100.00
35224;BME280;21367;51.930;8.112;2023-02-02T21:46:56;101765.00;;;7.09;100.00
35224;BME280;21367;51.930;8.112;2023-02-02T21:52:12;101748.13;;;7.11;100.00
35224;BME280;21367;51.930;8.112;2023-02-02T21:57:18;101750.97;;;7.04;100.00
35224;BME280;21367;51.930;8.112;2023-02-02T22:02:35;101763.97;;;7.07;100.00
35224;BME280;21367;51.930;8.112;2023-02-02T22:07:44;101761.00;;;7.25;100.00
35224;BME280;21367;51.930;8.112;2023-02-02T22:12:50;101753.53;;;7.16;100.00
35224;BME280;21367;51.930;8.112;2023-02-02T22:17:54;101734.50;;;7.36;100.00
35224;BME280;21367;51.930;8.112;2023-02-02T22:23:02;101736.97;;;7.23;100.00
35224;BME280;21367;51.930;8.112;2023-02-02T22:28:13;101747.84;;;7.55;100.00
35224;BME280;21367;51.930;8.112;2023-02-02T22:33:20;101743.63;;;7.44;100.00
35224;BME280;21367;51.930;8.112;2023-02-02T22:38:28;101725.28;;;7.38;100.00
35224;BME280;21367;51.930;8.112;2023-02-02T22:43:34;101693.66;;;7.61;100.00
35224;BME280;21367;51.930;8.112;2023-02-02T22:48:38;101713.25;;;7.49;100.00
35224;BME280;21367;51.930;8.112;2023-02-02T22:53:44;101703.00;;;7.60;100.00
35224;BME280;21367;51.930;8.112;2023-02-02T22:58:48;101719.66;;;7.67;100.00
35224;BME280;21367;51.930;8.112;2023-02-02T23:03:51;101735.38;;;7.48;100.00
35224;BME280;21367;51.930;8.112;2023-02-02T23:08:58;101731.03;;;7.59;100.00
35224;BME280;21367;51.930;8.112;2023-02-02T23:14:02;101729.22;;;7.70;100.00
35224;BME280;21367;51.930;8.112;2023-02-02T23:19:06;101705.34;;;7.46;100.00
35224;BME280;21367;51.930;8.112;2023-02-02T23:24:12;101701.44;;;7.62;100.00
35224;BME280;21367;51.930;8.112;2023-02-02T23:29:15;101695.97;;;7.70;100.00
35224;BME280;21367;51.930;8.112;2023-02-02T23:34:19;101694.28;;;7.70;100.00
35224;BME280;21367;51.930;8.112;2023-02-02T23:39:27;101690.78;;;7.56;100.00
35224;BME280;21367;51.930;8.112;2023-02-02T23:44:30;101666.59;;;7.64;100.00
35224;BME280;21367;51.930;8.112;2023-02-02T23:49:34;101661.69;;;7.68;100.00
35224;BME280;21367;51.930;8.112;2023-02-02T23:54:41;101660.31;;;7.59;100.00
35224;BME280;21367;51.930;8.112;2023-02-02T23:59:46;101655.63;;;7.54;100.00
